Time;durP1;ratioP1;P1;durP2;ratioP2;P2;SDS_P1;SDS_P2;PMS_P1;PMS_P2;Temp;Humidity;BMP_temperature;BMP_pressure;BME280_temperature;BME280_humidity;BME280_pressure;Samples;Min_cycle;Max_cycle;Signal;HPM_P1;HPM_P2
2022/10/04 00:01:47;;;;;;;15.40;5.65;;;;;;;19.81;53.20;102393.91;4990031;28;20391;-69
2022/10/04 00:04:22;;;;;;;15.57;5.63;;;;;;;19.83;53.12;102391.75;4991279;28;20141;-70
2022/10/04 00:07:00;;;;;;;13.35;4.88;;;;;;;19.75;52.92;102392.19;4991411;28;20046;-69
2022/10/04 00:09:40;;;;;;;18.15;5.47;;;;;;;19.87;52.83;102390.19;4991028;28;20072;-70
2022/10/04 00:12:16;;;;;;;11.77;5.40;;;;;;;19.89;52.81;102389.97;4980986;28;20436;-69
2022/10/04 00:14:42;;;;;;;19.45;5.75;;;;;;;19.93;52.57;102394.66;4971481;28;20129;-70
2022/10/04 00:17:12;;;;;;;14.73;5.28;;;;;;;19.91;52.83;102394.06;4981625;28;20045;-69
2022/10/04 00:19:41;;;;;;;19.33;7.70;;;;;;;19.65;53.01;102389.31;5033599;28;20609;-69
2022/10/04 00:22:09;;;;;;;19.80;6.28;;;;;;;19.81;52.53;102395.84;5033002;28;20041;-69
2022/10/04 00:24:36;;;;;;;19.38;5.93;;;;;;;19.99;52.62;102390.09;5016083;28;20044;-69
2022/10/04 00:27:25;;;;;;;19.48;5.30;;;;;;;19.86;53.04;102380.38;5013135;28;20118;-70
2022/10/04 00:30:03;;;;;;;14.40;5.22;;;;;;;19.87;53.12;102376.53;5012778;28;20394;-70
2022/10/04 00:32:31;;;;;;;16.40;5.82;;;;;;;19.88;52.90;102375.50;5012847;28;20449;-68
2022/10/04 00:34:58;;;;;;;18.48;6.57;;;;;;;19.97;52.57;102370.41;5013303;28;20045;-70
2022/10/04 00:37:26;;;;;;;19.83;6.75;;;;;;;19.58;53.63;102371.44;5011152;28;20034;-68
2022/10/04 00:40:11;;;;;;;13.10;5.07;;;;;;;19.79;53.12;102362.53;5012830;28;20652;-68
2022/10/04 00:42:45;;;;;;;17.15;5.22;;;;;;;19.83;52.91;102353.56;5012723;28;20057;-70
2022/10/04 00:45:17;;;;;;;13.25;5.90;;;;;;;19.82;53.04;102351.94;5012321;28;20045;-69
2022/10/04 00:47:42;;;;;;;13.73;5.32;;;;;;;19.73;52.83;102358.88;5012924;28;20091;-69
2022/10/04 00:50:26;;;;;;;12.80;6.20;;;;;;;19.70;52.70;102353.91;5012831;28;20042;-70
2022/10/04 00:52:55;;;;;;;13.32;5.10;;;;;;;19.96;52.48;102338.75;5011359;28;20479;-69
2022/10/04 00:55:26;;;;;;;17.20;6.20;;;;;;;19.46;53.95;102341.50;5012684;28;20117;-69
2022/10/04 00:57:58;;;;;;;10.82;5.68;;;;;;;19.44;54.36;102346.38;5011825;28;20038;-69
2022/10/04 01:00:25;;;;;;;17.63;7.05;;;;;;;19.11;55.98;102357.22;5012282;28;20030;-71
2022/10/04 01:03:01;;;;;;;19.27;7.07;;;;;;;19.68;53.92;102355.22;5012580;28;20121;-68
2022/10/04 01:05:54;;;;;;;13.32;6.72;;;;;;;19.64;53.87;102354.06;5012416;28;20072;-71
2022/10/04 01:08:30;;;;;;;20.45;8.05;;;;;;;19.54;54.05;102353.91;5012397;28;20038;-68
2022/10/04 01:11:03;;;;;;;21.83;7.25;;;;;;;19.75;52.98;102342.28;5012696;28;20041;-68
2022/10/04 01:13:49;;;;;;;16.23;7.65;;;;;;;19.64;53.87;102335.81;5012293;28;20663;-69
2022/10/04 01:16:19;;;;;;;16.92;7.75;;;;;;;19.76;53.35;102324.81;5011965;28;20042;-69
2022/10/04 01:18:45;;;;;;;16.63;7.50;;;;;;;19.72;53.46;102319.03;5012085;28;20042;-69
2022/10/04 01:21:28;;;;;;;22.13;9.35;;;;;;;19.63;53.56;102320.53;5011779;28;20033;-68
2022/10/04 01:24:15;;;;;;;15.90;7.75;;;;;;;19.32;54.84;102325.72;5011889;28;20042;-69
2022/10/04 01:26:42;;;;;;;20.33;8.02;;;;;;;19.50;53.88;102323.59;5012186;28;20038;-71
2022/10/04 01:29:30;;;;;;;18.05;7.65;;;;;;;19.28;55.02;102325.38;5012750;28;20448;-70
2022/10/04 01:31:58;;;;;;;40.00;8.93;;;;;;;19.25;54.82;102323.13;5012074;28;20072;-69
2022/10/04 01:34:27;;;;;;;20.70;7.30;;;;;;;19.44;54.06;102313.66;5011998;28;20038;-68
2022/10/04 01:37:02;;;;;;;18.83;8.05;;;;;;;19.42;53.73;102310.38;5011948;28;20037;-69
2022/10/04 01:39:28;;;;;;;17.73;6.60;;;;;;;19.14;54.76;102303.03;5011897;28;20057;-69
2022/10/04 01:41:58;;;;;;;19.13;7.65;;;;;;;19.17;54.31;102288.94;5012194;28;20029;-69
2022/10/04 01:44:29;;;;;;;;;;;;;;;19.13;54.52;102300.56;5012522;28;20034;-70
2022/10/04 01:47:02;;;;;;;17.77;6.95;;;;;;;19.16;54.40;102295.44;5012367;28;20357;-68
2022/10/04 01:49:33;;;;;;;16.90;7.63;;;;;;;19.01;54.24;102289.75;5011496;28;20046;-70
2022/10/04 01:52:07;;;;;;;15.98;7.10;;;;;;;19.01;54.75;102281.56;5011909;28;20084;-68
2022/10/04 01:54:37;;;;;;;30.05;8.48;;;;;;;19.02;54.38;102282.41;5011777;28;20048;-68
2022/10/04 01:57:14;;;;;;;25.55;7.93;;;;;;;19.12;54.61;102277.13;5011964;28;20034;-69
2022/10/04 01:59:48;;;;;;;17.25;7.05;;;;;;;19.14;54.40;102261.38;5011748;28;20041;-70
2022/10/04 02:02:32;;;;;;;14.40;7.28;;;;;;;19.25;53.98;102268.63;5011881;28;20052;-69
2022/10/04 02:05:00;;;;;;;21.15;7.13;;;;;;;19.13;54.31;102271.44;5012601;28;20045;-70
2022/10/04 02:07:30;;;;;;;19.25;7.57;;;;;;;18.50;56.77;102280.88;5011688;28;20038;-69
2022/10/04 02:09:58;;;;;;;21.33;8.18;;;;;;;18.80;56.30;102285.00;5013933;28;20045;-69
2022/10/04 02:12:26;;;;;;;16.60;8.55;;;;;;;18.97;54.85;102274.97;5015531;28;20038;-71
2022/10/04 02:14:54;;;;;;;16.27;7.55;;;;;;;18.74;56.24;102272.38;5015168;28;20042;-69
2022/10/04 02:17:25;;;;;;;14.35;7.00;;;;;;;18.85;55.87;102273.38;5015646;28;20046;-71
2022/10/04 02:19:52;;;;;;;15.18;7.88;;;;;;;18.93;55.70;102267.50;5016082;28;20590;-69
2022/10/04 02:22:18;;;;;;;16.73;7.90;;;;;;;19.05;55.15;102260.94;5015608;28;20048;-71
2022/10/04 02:24:47;;;;;;;22.58;7.55;;;;;;;19.09;54.93;102253.09;5032567;28;20045;-70
2022/10/04 02:27:13;;;;;;;22.27;8.05;;;;;;;18.87;55.24;102244.00;5034895;28;20384;-68
2022/10/04 02:29:38;;;;;;;20.40;8.60;;;;;;;18.91;54.86;102245.97;5035183;28;20116;-69
2022/10/04 02:34:51;;;;;;;17.25;6.60;;;;;;;18.99;55.06;102240.13;5035090;28;20547;-70
2022/10/04 02:37:17;;;;;;;16.55;6.90;;;;;;;18.88;55.00;102235.59;5034273;28;20526;-69
2022/10/04 02:39:48;;;;;;;29.23;8.88;;;;;;;18.81;55.56;102231.38;5034238;28;20126;-70
2022/10/04 02:42:40;;;;;;;17.70;6.72;;;;;;;18.83;55.53;102224.59;5034267;28;20043;-71
2022/10/04 02:45:13;;;;;;;16.73;6.90;;;;;;;18.79;55.57;102233.50;4972524;28;20074;-70
2022/10/04 02:47:46;;;;;;;12.70;7.63;;;;;;;18.78;55.38;102226.41;4972877;28;20118;-70
2022/10/04 02:50:29;;;;;;;19.60;7.82;;;;;;;18.63;56.27;102229.69;4972244;28;20042;-70
2022/10/04 02:53:11;;;;;;;19.00;7.65;;;;;;;18.53;55.92;102225.94;4973402;28;20027;-69
2022/10/04 02:55:37;;;;;;;18.30;8.90;;;;;;;18.58;55.66;102226.84;4973037;28;20109;-70
2022/10/04 02:58:09;;;;;;;17.23;8.95;;;;;;;18.51;55.17;102215.31;4972924;28;20042;-70
2022/10/04 03:00:45;;;;;;;15.63;7.07;;;;;;;18.37;55.51;102217.47;4972853;28;20035;-69
2022/10/04 03:03:28;;;;;;;20.00;8.48;;;;;;;18.30;55.88;102222.22;4972817;28;20126;-69
2022/10/04 03:06:03;;;;;;;20.75;8.00;;;;;;;18.34;55.50;102211.66;4973202;28;20130;-68
2022/10/04 03:08:33;;;;;;;19.05;8.38;;;;;;;18.31;56.04;102204.84;4972876;28;20050;-69
2022/10/04 03:11:04;;;;;;;17.80;7.72;;;;;;;18.28;56.36;102197.13;4973221;28;20085;-68
2022/10/04 03:13:30;;;;;;;;;;;;;;;18.27;56.54;102203.66;4973573;28;20121;-70
2022/10/04 03:15:55;;;;;;;22.67;10.52;;;;;;;18.31;56.79;102195.84;4972533;28;20475;-69
2022/10/04 03:18:21;;;;;;;21.90;9.45;;;;;;;18.42;55.66;102193.09;4972759;28;20136;-69
2022/10/04 03:20:47;;;;;;;26.15;9.48;;;;;;;18.38;56.62;102193.78;4971735;28;20063;-68
2022/10/04 03:23:16;;;;;;;26.38;9.68;;;;;;;18.43;56.53;102188.47;5013414;28;20041;-69
2022/10/04 03:25:55;;;;;;;15.13;8.13;;;;;;;18.34;56.62;102184.44;5034487;28;20069;-69
2022/10/04 03:28:20;;;;;;;21.20;9.32;;;;;;;18.28;56.84;102182.69;5033942;28;20458;-70
2022/10/04 03:30:47;;;;;;;28.27;10.32;;;;;;;18.43;56.18;102185.75;5033694;28;20041;-69
2022/10/04 03:33:19;;;;;;;19.65;10.00;;;;;;;18.37;56.12;102179.38;5033866;28;20037;-69
2022/10/04 03:35:48;;;;;;;17.48;9.63;;;;;;;18.33;55.85;102183.66;5033942;28;20037;-71
2022/10/04 03:38:13;;;;;;;22.02;8.98;;;;;;;18.35;55.76;102178.78;5033635;28;20040;-69
2022/10/04 03:40:44;;;;;;;17.63;9.40;;;;;;;18.17;56.26;102176.25;5034078;28;20018;-70
2022/10/04 03:43:11;;;;;;;17.02;9.88;;;;;;;18.17;56.51;102173.53;5033806;28;20044;-70
2022/10/04 03:45:39;;;;;;;18.83;10.38;;;;;;;18.07;56.67;102167.88;5033174;28;20064;-68
2022/10/04 03:48:08;;;;;;;23.85;10.95;;;;;;;18.12;56.96;102169.91;5033576;28;20065;-70
2022/10/04 03:50:48;;;;;;;22.98;10.65;;;;;;;18.13;56.54;102172.38;5033016;28;20113;-69
2022/10/04 03:53:28;;;;;;;22.05;11.27;;;;;;;17.93;57.28;102176.56;5033450;28;20038;-70
2022/10/04 03:55:54;;;;;;;21.73;11.48;;;;;;;18.05;57.28;102166.47;5034158;28;20033;-68
2022/10/04 03:58:21;;;;;;;28.25;12.32;;;;;;;17.97;57.05;102173.13;5033598;28;20482;-68
2022/10/04 04:00:59;;;;;;;17.02;10.80;;;;;;;17.72;58.45;102169.88;5032757;28;20041;-70
2022/10/04 04:03:28;;;;;;;19.63;11.32;;;;;;;18.01;57.44;102168.84;5020650;28;20037;-70
2022/10/04 04:05:59;;;;;;;20.05;11.35;;;;;;;17.88;57.13;102181.91;5022259;28;20042;-70
2022/10/04 04:08:37;;;;;;;20.13;11.15;;;;;;;17.99;56.83;102183.75;5027288;28;20017;-69
2022/10/04 04:11:06;;;;;;;25.02;10.77;;;;;;;17.85;56.91;102171.50;5020070;28;20041;-68
2022/10/04 04:13:40;;;;;;;31.70;10.40;;;;;;;17.61;57.90;102178.88;5014910;28;20769;-69
2022/10/04 04:16:08;;;;;;;22.17;11.90;;;;;;;17.55;58.67;102167.06;5042001;28;20558;-69
2022/10/04 04:18:36;;;;;;;19.52;11.48;;;;;;;17.79;56.89;102165.13;5052853;28;20488;-69
2022/10/04 04:21:05;;;;;;;21.10;11.00;;;;;;;17.85;56.56;102160.63;5052762;28;20067;-70
2022/10/04 04:23:40;;;;;;;19.95;10.95;;;;;;;17.65;57.39;102160.22;5052747;28;20040;-69
2022/10/04 04:26:22;;;;;;;20.70;11.25;;;;;;;17.81;56.97;102165.72;5053343;28;20036;-70
2022/10/04 04:29:15;;;;;;;22.75;10.73;;;;;;;17.68;56.91;102174.16;5053109;28;20081;-69
2022/10/04 04:32:19;;;;;;;16.65;9.77;;;;;;;17.69;56.69;102162.19;5052367;28;20159;-69
2022/10/04 04:35:05;;;;;;;31.02;11.60;;;;;;;17.53;57.04;102158.34;5052263;28;20052;-70
2022/10/04 04:37:31;;;;;;;20.70;10.93;;;;;;;17.58;56.87;102157.63;5052405;28;20048;-69
2022/10/04 04:40:28;;;;;;;21.70;11.80;;;;;;;17.59;57.07;102159.28;5052367;28;20462;-69
2022/10/04 04:42:58;;;;;;;23.83;11.35;;;;;;;17.55;57.05;102149.97;5050932;28;20528;-70
2022/10/04 04:45:28;;;;;;;23.92;11.18;;;;;;;17.51;57.22;102149.59;5043519;28;20088;-69
2022/10/04 04:47:57;;;;;;;17.13;10.75;;;;;;;17.46;57.48;102146.75;5031057;28;20537;-68
2022/10/04 04:50:29;;;;;;;25.90;11.38;;;;;;;17.32;57.97;102149.94;5030827;28;20075;-68
2022/10/04 04:53:04;;;;;;;25.70;12.10;;;;;;;17.49;57.59;102159.06;5029390;28;20033;-68
2022/10/04 04:55:43;;;;;;;27.83;13.98;;;;;;;17.37;57.96;102159.06;5030754;28;20033;-69
2022/10/04 04:58:20;;;;;;;34.63;12.20;;;;;;;17.50;57.34;102168.88;5030206;28;20067;-68
2022/10/04 05:00:53;;;;;;;18.77;11.95;;;;;;;17.47;57.23;102161.16;5041717;28;20040;-69
2022/10/04 05:03:20;;;;;;;18.13;12.73;;;;;;;17.48;57.09;102160.94;5033762;28;20110;-68
2022/10/04 05:05:46;;;;;;;25.50;11.52;;;;;;;17.47;56.52;102158.44;5031111;28;20029;-69
2022/10/04 05:08:19;;;;;;;18.27;11.95;;;;;;;17.45;56.65;102158.66;5031420;28;20029;-70
2022/10/04 05:10:57;;;;;;;25.67;11.02;;;;;;;17.52;56.28;102153.13;5032259;28;20033;-69
2022/10/04 05:13:40;;;;;;;29.20;12.07;;;;;;;17.41;56.82;102153.97;5011714;28;20038;-70
2022/10/04 05:16:17;;;;;;;21.75;12.15;;;;;;;17.38;57.05;102162.56;5021172;28;20121;-71
2022/10/04 05:18:42;;;;;;;20.80;12.30;;;;;;;17.37;56.44;102161.78;5031586;28;20095;-69
2022/10/04 05:21:29;;;;;;;23.63;11.95;;;;;;;17.33;57.42;102157.88;5031864;28;20440;-69
2022/10/04 05:24:08;;;;;;;17.75;11.45;;;;;;;17.27;57.06;102155.28;5031313;28;20046;-69
2022/10/04 05:26:33;;;;;;;20.65;11.60;;;;;;;17.31;57.36;102156.44;5031730;28;20052;-69
2022/10/04 05:29:06;;;;;;;26.42;12.00;;;;;;;17.27;56.81;102158.81;5032456;28;20087;-70
2022/10/04 05:31:48;;;;;;;23.73;12.75;;;;;;;17.24;57.10;102150.28;5040367;28;20588;-69
2022/10/04 05:34:26;;;;;;;20.02;12.02;;;;;;;17.25;57.40;102144.66;5051398;28;20044;-68
2022/10/04 05:37:10;;;;;;;24.75;12.57;;;;;;;17.30;56.79;102146.63;5051276;28;20037;-70
2022/10/04 05:39:49;;;;;;;26.77;14.00;;;;;;;17.28;57.01;102151.47;5045603;28;20117;-69
2022/10/04 05:42:19;;;;;;;36.42;15.27;;;;;;;17.34;57.24;102137.78;5040035;28;20128;-69
2022/10/04 05:44:51;;;;;;;25.98;13.35;;;;;;;17.48;56.72;102143.78;5040019;28;20033;-72
2022/10/04 05:47:22;;;;;;;21.80;12.93;;;;;;;17.42;57.10;102142.00;5044208;28;20040;-69
2022/10/04 05:49:50;;;;;;;23.25;13.45;;;;;;;17.53;56.90;102146.66;5046893;28;20601;-69
2022/10/04 05:52:35;;;;;;;24.85;13.82;;;;;;;17.37;57.41;102144.63;5031368;28;20040;-70
2022/10/04 05:55:19;;;;;;;22.75;13.60;;;;;;;17.52;56.90;102145.81;5031348;28;20076;-68
2022/10/04 05:58:01;;;;;;;25.00;14.80;;;;;;;17.59;56.58;102136.72;5031282;28;20037;-69
2022/10/04 06:00:34;;;;;;;20.70;14.27;;;;;;;17.58;56.79;102143.19;5031440;28;20453;-70
2022/10/04 06:03:20;;;;;;;21.08;13.43;;;;;;;17.41;57.38;102145.81;5030872;28;20067;-71
2022/10/04 06:05:51;;;;;;;22.92;14.07;;;;;;;17.53;57.03;102147.47;5031065;28;20124;-68
2022/10/04 06:08:16;;;;;;;21.02;12.57;;;;;;;17.57;56.74;102147.84;5031046;28;20136;-69
2022/10/04 06:10:59;;;;;;;27.02;13.50;;;;;;;17.56;56.31;102146.16;5031695;28;20124;-72
2022/10/04 06:13:51;;;;;;;17.65;12.75;;;;;;;17.49;56.56;102151.72;5011532;28;20052;-68
2022/10/04 06:16:35;;;;;;;25.13;15.15;;;;;;;17.65;56.72;102144.72;5022198;28;20034;-69
2022/10/04 06:19:03;;;;;;;20.17;14.82;;;;;;;17.56;56.32;102146.16;5031310;28;20042;-70
2022/10/04 06:21:35;;;;;;;18.40;13.43;;;;;;;17.38;58.17;102146.28;5031170;28;20050;-71
2022/10/04 06:24:20;;;;;;;24.02;14.57;;;;;;;17.65;56.77;102146.63;5034535;28;20041;-68
2022/10/04 06:26:54;;;;;;;28.63;13.77;;;;;;;17.75;56.73;102153.09;5028730;28;20033;-69
2022/10/04 06:29:27;;;;;;;21.38;13.88;;;;;;;17.69;57.34;102154.03;5046500;28;20509;-70
2022/10/04 06:32:10;;;;;;;24.70;15.82;;;;;;;17.64;57.31;102153.94;5051362;28;20037;-71
2022/10/04 06:34:54;;;;;;;28.35;15.10;;;;;;;17.76;56.89;102152.03;5051005;28;20052;-70
2022/10/04 06:37:37;;;;;;;27.35;15.55;;;;;;;17.69;57.32;102145.88;5051027;28;20044;-70
2022/10/04 06:40:28;;;;;;;22.33;16.10;;;;;;;17.14;59.93;102150.09;5050996;28;20535;-71
2022/10/04 06:43:18;;;;;;;28.58;16.67;;;;;;;17.57;57.95;102141.56;5050933;28;20041;-70
2022/10/04 06:46:16;;;;;;;24.17;18.23;;;;;;;17.75;57.55;102127.81;5037968;28;20742;-71
2022/10/04 06:48:50;;;;;;;34.45;17.88;;;;;;;17.45;58.54;102119.81;4950061;29;20050;-68
2022/10/04 06:51:28;;;;;;;32.90;18.83;;;;;;;17.38;59.33;102119.94;4949803;28;20130;-69
2022/10/04 06:54:19;;;;;;;26.15;18.63;;;;;;;17.72;58.15;102120.13;4950299;28;20042;-70
2022/10/04 06:57:18;;;;;;;30.13;18.60;;;;;;;17.50;58.64;102115.34;4965830;28;20137;-69
2022/10/04 07:00:05;;;;;;;35.03;19.90;;;;;;;17.92;57.79;102118.66;4933999;29;20047;-70
2022/10/04 07:02:56;;;;;;;37.38;19.75;;;;;;;18.16;57.29;102114.72;4877555;29;20398;-72
2022/10/04 07:05:37;;;;;;;36.97;20.92;;;;;;;17.93;58.07;102117.56;4877556;29;20233;-70
2022/10/04 07:08:29;;;;;;;31.75;20.58;;;;;;;17.74;58.31;102120.69;4877801;29;20228;-71
2022/10/04 07:11:03;;;;;;;35.78;21.52;;;;;;;18.02;57.98;102120.72;4877054;29;20081;-68
2022/10/04 07:13:39;;;;;;;28.30;20.88;;;;;;;18.34;56.97;102113.69;4877519;29;20075;-69
2022/10/04 07:16:36;;;;;;;34.05;21.83;;;;;;;18.00;58.03;102115.53;4877618;29;20041;-68
2022/10/04 07:19:26;;;;;;;28.15;21.25;;;;;;;18.35;57.60;102113.47;4877423;29;20057;-70
2022/10/04 07:22:07;;;;;;;38.70;24.15;;;;;;;18.32;57.89;102107.66;4877647;29;20040;-68
2022/10/04 07:24:50;;;;;;;36.28;22.23;;;;;;;18.67;56.62;102107.47;4898800;29;20611;-69
2022/10/04 07:27:41;;;;;;;38.45;23.60;;;;;;;18.79;56.63;102098.13;4915306;29;20499;-69
2022/10/04 07:30:19;;;;;;;36.40;22.90;;;;;;;18.52;57.81;102108.03;4905275;29;20381;-69
2022/10/04 07:32:50;;;;;;;40.15;23.77;;;;;;;18.16;58.65;102116.66;4906105;29;20215;-68
2022/10/04 07:35:34;;;;;;;36.00;24.00;;;;;;;18.98;56.07;102118.59;4905334;29;20040;-69
2022/10/04 07:38:12;;;;;;;32.55;23.15;;;;;;;19.13;56.05;102131.63;4905842;29;20040;-70
2022/10/04 07:40:42;;;;;;;35.30;22.42;;;;;;;19.36;55.79;102141.53;4957012;28;20567;-68
2022/10/04 07:43:20;;;;;;;29.77;21.15;;;;;;;19.11;55.96;102148.22;4958164;28;20101;-70
2022/10/04 07:45:47;;;;;;;29.77;20.50;;;;;;;18.82;57.16;102141.22;4958168;28;20784;-70
2022/10/04 07:48:15;;;;;;;28.52;19.52;;;;;;;19.32;55.88;102143.88;4952149;28;20523;-70
2022/10/04 07:50:58;;;;;;;28.48;18.08;;;;;;;19.77;54.55;102151.88;4951164;28;20054;-68
2022/10/04 07:53:31;;;;;;;24.80;16.85;;;;;;;19.17;56.13;102144.50;4950892;28;20086;-68
2022/10/04 07:56:06;;;;;;;27.63;17.52;;;;;;;19.37;55.35;102138.53;4951789;29;20039;-69
2022/10/04 07:58:38;;;;;;;24.30;14.68;;;;;;;19.68;54.86;102137.03;4951058;28;20530;-68
2022/10/04 08:01:18;;;;;;;24.13;15.25;;;;;;;19.71;54.98;102134.63;4951221;29;20114;-67
2022/10/04 08:04:04;;;;;;;23.95;15.77;;;;;;;19.90;54.05;102137.84;4950984;29;20047;-68
2022/10/04 08:06:55;;;;;;;22.48;14.20;;;;;;;19.93;53.91;102137.34;4968857;28;20033;-69
2022/10/04 08:09:30;;;;;;;20.40;12.98;;;;;;;19.28;55.20;102140.03;5030591;28;20025;-68
2022/10/04 08:12:17;;;;;;;20.90;11.85;;;;;;;19.32;54.71;102138.41;5029823;28;20191;-68
2022/10/04 08:15:08;;;;;;;21.08;12.60;;;;;;;19.73;53.67;102137.94;5034154;28;20029;-68
2022/10/04 08:17:55;;;;;;;20.33;11.70;;;;;;;19.72;53.93;102141.72;5039782;28;20709;-68
2022/10/04 08:20:21;;;;;;;17.48;12.18;;;;;;;19.69;53.81;102125.88;5040268;28;20076;-69
2022/10/04 08:23:08;;;;;;;24.00;14.15;;;;;;;19.85;53.45;102127.69;5041745;28;20059;-68
2022/10/04 08:25:47;;;;;;;16.73;12.63;;;;;;;20.09;52.36;102133.69;5041572;28;20688;-69
2022/10/04 08:31:16;;;;;;;25.25;13.70;;;;;;;19.81;53.45;102129.28;5042726;28;20108;-67
2022/10/04 08:33:59;;;;;;;25.63;14.27;;;;;;;20.17;52.46;102126.97;5038947;28;20046;-68
2022/10/04 08:36:52;;;;;;;24.38;13.93;;;;;;;20.08;53.02;102132.06;5039956;28;20060;-70
2022/10/04 08:39:27;;;;;;;17.90;12.57;;;;;;;20.35;52.14;102123.88;5043450;28;20205;-69
2022/10/04 08:42:10;;;;;;;16.85;12.18;;;;;;;19.85;53.73;102124.97;5040962;28;20068;-69
2022/10/04 08:44:41;;;;;;;19.77;12.75;;;;;;;20.09;53.04;102118.16;5037229;28;20033;-69
2022/10/04 08:47:10;;;;;;;18.25;12.00;;;;;;;19.87;53.58;102116.53;5033177;28;20073;-69
2022/10/04 08:50:13;;;;;;;18.02;12.70;;;;;;;19.90;53.37;102125.03;5032753;28;20160;-70
2022/10/04 08:53:16;;;;;;;21.30;12.88;;;;;;;20.69;51.20;102117.94;5032414;28;20481;-68
2022/10/04 08:56:18;;;;;;;23.45;11.60;;;;;;;20.29;52.41;102116.72;5032171;28;20065;-68
2022/10/04 08:58:53;;;;;;;19.95;12.32;;;;;;;20.46;51.68;102118.25;5031670;28;20045;-69
2022/10/04 09:01:50;;;;;;;18.17;12.13;;;;;;;20.70;51.12;102119.56;5028540;28;20072;-69
2022/10/04 09:04:40;;;;;;;18.73;12.45;;;;;;;20.06;52.69;102112.38;5030419;28;20033;-68
2022/10/04 09:07:38;;;;;;;23.75;11.98;;;;;;;20.79;51.49;102108.97;5029291;28;20041;-69
2022/10/04 09:10:39;;;;;;;19.17;11.43;;;;;;;20.42;52.30;102119.06;5030698;28;20080;-69
2022/10/04 09:13:30;;;;;;;;;;;;;;;20.33;52.08;102118.69;5029834;28;20048;-70
2022/10/04 09:16:09;;;;;;;17.60;10.30;;;;;;;20.26;52.45;102118.09;5030410;28;20013;-69
2022/10/04 09:18:54;;;;;;;20.77;12.32;;;;;;;20.45;52.22;102122.06;5029740;28;20055;-69
2022/10/04 09:21:53;;;;;;;23.75;11.55;;;;;;;20.64;52.22;102115.13;5028507;28;20108;-70
2022/10/04 09:24:18;;;;;;;20.80;11.77;;;;;;;20.58;52.49;102113.44;5028160;28;20115;-70
2022/10/04 09:26:50;;;;;;;27.55;11.35;;;;;;;20.59;52.15;102112.38;5030488;28;20124;-70
2022/10/04 09:29:25;;;;;;;14.80;10.32;;;;;;;21.08;51.06;102109.47;5030299;28;20051;-69
2022/10/04 09:32:05;;;;;;;15.90;11.02;;;;;;;20.79;51.34;102109.81;5046267;28;20041;-68
2022/10/04 09:34:50;;;;;;;25.90;11.60;;;;;;;21.14;50.26;102108.41;5029267;28;20041;-69
2022/10/04 09:37:57;;;;;;;18.27;10.43;;;;;;;21.25;49.97;102113.66;5029948;28;20049;-70
2022/10/04 09:41:04;;;;;;;15.13;9.73;;;;;;;21.47;50.23;102108.88;5028273;28;20087;-69
2022/10/04 09:44:01;;;;;;;19.30;9.60;;;;;;;21.19;50.41;102109.25;5029468;28;20080;-70
2022/10/04 09:46:50;;;;;;;14.45;8.50;;;;;;;20.75;51.54;102105.13;5029310;28;20034;-69
2022/10/04 09:49:26;;;;;;;16.13;9.20;;;;;;;21.11;51.07;102096.09;5029563;28;20103;-70
2022/10/04 09:52:04;;;;;;;21.80;10.77;;;;;;;21.28;49.41;102104.13;5030128;28;20524;-70
2022/10/04 09:54:53;;;;;;;15.82;8.82;;;;;;;21.03;50.36;102104.78;5029096;28;20155;-70
2022/10/04 09:57:52;;;;;;;21.40;9.07;;;;;;;21.27;50.72;102103.28;5027548;28;20117;-69
2022/10/04 10:00:27;;;;;;;20.77;10.98;;;;;;;21.53;49.51;102101.50;5029742;28;20029;-70
2022/10/04 10:03:11;;;;;;;17.25;8.20;;;;;;;21.73;48.54;102096.13;5029977;28;20068;-69
2022/10/04 10:06:06;;;;;;;15.93;9.60;;;;;;;22.21;48.19;102089.41;5029938;28;20381;-71
2022/10/04 10:08:37;;;;;;;16.77;8.23;;;;;;;21.73;49.00;102096.94;5029827;28;20057;-69
2022/10/04 10:14:25;;;;;;;16.60;7.95;;;;;;;21.95;48.51;102076.78;5041614;28;20417;-70
2022/10/04 10:17:02;;;;;;;16.75;8.98;;;;;;;22.55;47.58;102076.81;5044297;28;20042;-69
2022/10/04 10:19:59;;;;;;;13.68;8.23;;;;;;;22.36;48.14;102078.47;5028477;28;20064;-69
2022/10/04 10:22:43;;;;;;;12.93;8.05;;;;;;;22.99;46.47;102064.19;5029960;28;20048;-70
2022/10/04 10:25:20;;;;;;;17.35;8.60;;;;;;;22.91;46.80;102044.72;5028240;28;20053;-69
2022/10/04 10:28:13;;;;;;;15.23;7.80;;;;;;;22.92;46.63;102049.13;5028221;28;20053;-70
2022/10/04 10:31:07;;;;;;;18.35;6.95;;;;;;;22.63;46.83;102052.47;5028955;28;20068;-70
2022/10/04 10:33:44;;;;;;;12.93;7.80;;;;;;;22.76;46.68;102048.31;5032856;28;20053;-69
2022/10/04 10:36:24;;;;;;;13.20;5.47;;;;;;;22.65;45.84;102050.25;5032553;28;20083;-69
2022/10/04 10:39:21;;;;;;;15.15;5.75;;;;;;;22.15;46.36;102069.41;5032587;28;20037;-69
2022/10/04 10:42:18;;;;;;;18.27;5.72;;;;;;;22.49;46.40;102070.50;5031961;28;20022;-68
2022/10/04 10:44:56;;;;;;;12.23;5.72;;;;;;;22.48;45.79;102079.84;5048240;28;20160;-70
2022/10/04 10:47:58;;;;;;;11.40;3.92;;;;;;;23.40;43.40;102059.41;5031192;28;20052;-70
2022/10/04 10:50:57;;;;;;;10.48;4.35;;;;;;;23.92;40.77;102062.41;5031264;28;20125;-68
2022/10/04 10:53:47;;;;;;;12.85;3.95;;;;;;;23.17;42.90;102071.81;5030525;28;20080;-71
2022/10/04 10:56:31;;;;;;;9.88;4.00;;;;;;;22.35;44.40;102074.06;5032481;28;20390;-71
2022/10/04 10:59:36;;;;;;;8.27;3.28;;;;;;;23.55;41.85;102062.91;5033547;28;20024;-69
2022/10/04 11:02:05;;;;;;;12.15;3.80;;;;;;;23.25;43.47;102048.47;5033822;28;20464;-71
2022/10/04 11:04:30;;;;;;;13.70;3.58;;;;;;;22.86;42.44;102052.97;5033083;28;20033;-71
2022/10/04 11:07:12;;;;;;;11.55;3.75;;;;;;;22.55;43.88;102050.25;5032908;28;20396;-70
2022/10/04 11:10:07;;;;;;;14.05;3.92;;;;;;;23.71;42.37;102040.84;5032989;28;20040;-72
2022/10/04 11:12:51;;;;;;;10.68;4.53;;;;;;;23.91;41.69;102037.97;5009724;28;20034;-69
2022/10/04 11:15:40;;;;;;;8.13;3.83;;;;;;;24.16;40.92;102033.16;5010184;28;20208;-72
2022/10/04 11:18:33;;;;;;;12.55;4.10;;;;;;;23.71;42.21;102036.19;5008815;28;20057;-71
2022/10/04 11:21:10;;;;;;;9.00;4.28;;;;;;;24.53;40.97;102042.75;5007747;28;20050;-70
2022/10/04 11:23:53;;;;;;;10.65;3.78;;;;;;;24.50;41.05;102037.81;5009873;28;20030;-71
2022/10/04 11:26:34;;;;;;;6.85;2.65;;;;;;;23.94;39.97;102031.94;4992359;28;20069;-70
2022/10/04 11:29:14;;;;;;;6.05;2.85;;;;;;;23.32;41.38;102036.13;4991087;28;20046;-70
2022/10/04 11:31:58;;;;;;;10.85;4.07;;;;;;;23.73;40.59;102027.66;4988388;28;20046;-70
2022/10/04 11:34:43;;;;;;;8.10;3.42;;;;;;;23.97;41.01;102014.88;4990333;28;20487;-70
2022/10/04 11:37:17;;;;;;;7.85;3.20;;;;;;;24.02;39.71;102017.59;4990704;28;20443;-72
2022/10/04 11:39:48;;;;;;;11.85;3.35;;;;;;;23.84;39.64;102010.84;4989449;28;20049;-69
2022/10/04 11:42:25;;;;;;;8.13;2.97;;;;;;;24.34;39.76;102018.72;4989633;28;20531;-70
2022/10/04 11:45:08;;;;;;;9.23;3.40;;;;;;;24.92;38.28;102005.78;4990261;28;20035;-69
2022/10/04 11:47:46;;;;;;;14.00;3.78;;;;;;;23.89;38.21;102007.25;4990396;28;20129;-72
2022/10/04 11:50:24;;;;;;;8.75;2.97;;;;;;;25.15;37.38;102001.38;5011472;28;20030;-71
2022/10/04 11:53:32;;;;;;;10.43;3.10;;;;;;;24.09;37.83;102002.47;5011763;28;20042;-68
2022/10/04 11:56:21;;;;;;;7.60;2.75;;;;;;;23.63;39.01;102008.50;5012754;28;20739;-68
2022/10/04 11:59:02;;;;;;;7.68;3.08;;;;;;;24.35;38.20;101992.06;5011207;28;20077;-69
2022/10/04 12:01:31;;;;;;;7.30;3.13;;;;;;;25.58;35.51;101993.94;5011188;28;20045;-70
2022/10/04 12:04:37;;;;;;;9.48;3.05;;;;;;;24.81;36.98;101996.00;5010879;28;20112;-71
2022/10/04 12:07:12;;;;;;;6.35;2.30;;;;;;;24.26;38.09;102002.03;5007095;28;20046;-71
2022/10/04 12:09:43;;;;;;;8.02;2.60;;;;;;;24.14;38.29;101993.34;5012025;28;20560;-70
2022/10/04 12:12:54;;;;;;;5.03;2.33;;;;;;;24.65;36.19;101993.69;5012062;28;20042;-71
2022/10/04 12:15:57;;;;;;;5.03;2.20;;;;;;;23.46;37.05;101979.53;4989289;28;20068;-69